sensor_id;sensor_type;location;lat;lon;timestamp;temperature;humidity
9730;DHT22;4904;49.152;11.004;2023-01-25T00:01:31;2.70;99.90
9730;DHT22;4904;49.152;11.004;2023-01-25T00:03:58;2.70;99.90
9730;DHT22;4904;49.152;11.004;2023-01-25T00:06:26;2.70;99.90
9730;DHT22;4904;49.152;11.004;2023-01-25T00:08:53;2.70;99.90
9730;DHT22;4904;49.152;11.004;2023-01-25T00:11:20;2.70;99.90
9730;DHT22;4904;49.152;11.004;2023-01-25T00:13:47;2.60;99.90
9730;DHT22;4904;49.152;11.004;2023-01-25T00:16:14;2.70;99.90
9730;DHT22;4904;49.152;11.004;2023-01-25T00:18:41;2.70;99.90
9730;DHT22;4904;49.152;11.004;2023-01-25T00:21:11;2.70;99.90
9730;DHT22;4904;49.152;11.004;2023-01-25T00:23:39;2.60;99.90
9730;DHT22;4904;49.152;11.004;2023-01-25T00:26:06;2.60;99.90
9730;DHT22;4904;49.152;11.004;2023-01-25T00:28:33;2.50;99.90
9730;DHT22;4904;49.152;11.004;2023-01-25T00:31:01;2.50;99.90
9730;DHT22;4904;49.152;11.004;2023-01-25T00:33:37;2.40;99.90
9730;DHT22;4904;49.152;11.004;2023-01-25T00:36:27;2.40;99.90
9730;DHT22;4904;49.152;11.004;2023-01-25T00:38:58;2.40;99.90
9730;DHT22;4904;49.152;11.004;2023-01-25T00:41:25;2.30;99.90
9730;DHT22;4904;49.152;11.004;2023-01-25T00:43:52;2.20;99.90
9730;DHT22;4904;49.152;11.004;2023-01-25T00:46:19;2.20;99.90
9730;DHT22;4904;49.152;11.004;2023-01-25T00:48:46;2.10;99.90
9730;DHT22;4904;49.152;11.004;2023-01-25T00:51:13;2.20;99.90
9730;DHT22;4904;49.152;11.004;2023-01-25T00:53:40;2.20;99.90
9730;DHT22;4904;49.152;11.004;2023-01-25T00:56:08;2.10;99.90
9730;DHT22;4904;49.152;11.004;2023-01-25T00:58:35;2.10;99.90
9730;DHT22;4904;49.152;11.004;2023-01-25T01:01:02;2.10;99.90
9730;DHT22;4904;49.152;11.004;2023-01-25T01:03:29;2.10;99.90
9730;DHT22;4904;49.152;11.004;2023-01-25T01:06:01;2.10;99.90
9730;DHT22;4904;49.152;11.004;2023-01-25T01:08:28;2.20;99.90
9730;DHT22;4904;49.152;11.004;2023-01-25T01:10:59;2.20;99.90
9730;DHT22;4904;49.152;11.004;2023-01-25T01:13:27;2.20;99.90
9730;DHT22;4904;49.152;11.004;2023-01-25T01:15:55;2.10;99.90
9730;DHT22;4904;49.152;11.004;2023-01-25T01:18:22;2.10;99.90
9730;DHT22;4904;49.152;11.004;2023-01-25T01:20:49;2.10;99.90
9730;DHT22;4904;49.152;11.004;2023-01-25T01:23:16;1.90;99.90
9730;DHT22;4904;49.152;11.004;2023-01-25T01:25:44;1.80;99.90
9730;DHT22;4904;49.152;11.004;2023-01-25T01:28:11;1.90;99.90
9730;DHT22;4904;49.152;11.004;2023-01-25T01:30:39;2.00;99.90
9730;DHT22;4904;49.152;11.004;2023-01-25T01:33:06;2.00;99.90
9730;DHT22;4904;49.152;11.004;2023-01-25T01:35:33;2.10;99.90
9730;DHT22;4904;49.152;11.004;2023-01-25T01:38:00;2.10;99.90
9730;DHT22;4904;49.152;11.004;2023-01-25T01:40:27;2.20;99.90
9730;DHT22;4904;49.152;11.004;2023-01-25T01:42:59;2.10;99.90
9730;DHT22;4904;49.152;11.004;2023-01-25T01:45:52;2.20;99.90
9730;DHT22;4904;49.152;11.004;2023-01-25T01:48:28;2.10;99.90
9730;DHT22;4904;49.152;11.004;2023-01-25T01:50:59;2.20;99.90
9730;DHT22;4904;49.152;11.004;2023-01-25T01:53:27;2.40;99.90
9730;DHT22;4904;49.152;11.004;2023-01-25T01:55:58;2.40;99.90
9730;DHT22;4904;49.152;11.004;2023-01-25T01:58:25;2.30;99.90
9730;DHT22;4904;49.152;11.004;2023-01-25T02:00:54;2.30;99.90
9730;DHT22;4904;49.152;11.004;2023-01-25T02:03:21;2.30;99.90
9730;DHT22;4904;49.152;11.004;2023-01-25T02:05:53;2.30;99.90
9730;DHT22;4904;49.152;11.004;2023-01-25T02:08:21;2.30;99.90
9730;DHT22;4904;49.152;11.004;2023-01-25T02:10:49;2.40;99.90
9730;DHT22;4904;49.152;11.004;2023-01-25T02:13:16;2.40;99.90
9730;DHT22;4904;49.152;11.004;2023-01-25T02:15:46;2.50;99.90
9730;DHT22;4904;49.152;11.004;2023-01-25T02:18:15;2.40;99.90
9730;DHT22;4904;49.152;11.004;2023-01-25T02:20:44;2.30;99.90
9730;DHT22;4904;49.152;11.004;2023-01-25T02:23:17;2.30;99.90
9730;DHT22;4904;49.152;11.004;2023-01-25T02:25:48;2.20;99.90
9730;DHT22;4904;49.152;11.004;2023-01-25T02:28:18;2.20;99.90
9730;DHT22;4904;49.152;11.004;2023-01-25T02:30:47;2.20;99.90
9730;DHT22;4904;49.152;11.004;2023-01-25T02:33:14;2.30;99.90
9730;DHT22;4904;49.152;11.004;2023-01-25T02:35:42;2.40;99.90
9730;DHT22;4904;49.152;11.004;2023-01-25T02:38:12;2.40;99.90
9730;DHT22;4904;49.152;11.004;2023-01-25T02:40:44;2.60;99.90
9730;DHT22;4904;49.152;11.004;2023-01-25T02:43:14;2.40;99.90
9730;DHT22;4904;49.152;11.004;2023-01-25T02:45:44;2.40;99.90
9730;DHT22;4904;49.152;11.004;2023-01-25T02:48:11;2.30;99.90
9730;DHT22;4904;49.152;11.004;2023-01-25T02:50:38;2.30;99.90
9730;DHT22;4904;49.152;11.004;2023-01-25T02:53:05;2.30;99.90
9730;DHT22;4904;49.152;11.004;2023-01-25T02:55:31;2.30;99.90
9730;DHT22;4904;49.152;11.004;2023-01-25T02:57:58;2.30;99.90
9730;DHT22;4904;49.152;11.004;2023-01-25T03:00:26;2.30;99.90
9730;DHT22;4904;49.152;11.004;2023-01-25T03:02:53;2.20;99.90
9730;DHT22;4904;49.152;11.004;2023-01-25T03:05:20;2.20;99.90
9730;DHT22;4904;49.152;11.004;2023-01-25T03:07:47;2.10;99.90
9730;DHT22;4904;49.152;11.004;2023-01-25T03:10:14;2.10;99.90
9730;DHT22;4904;49.152;11.004;2023-01-25T03:12:41;2.00;99.90
9730;DHT22;4904;49.152;11.004;2023-01-25T03:15:08;2.10;99.90
9730;DHT22;4904;49.152;11.004;2023-01-25T03:17:36;2.20;99.90
9730;DHT22;4904;49.152;11.004;2023-01-25T03:20:04;2.30;99.90
9730;DHT22;4904;49.152;11.004;2023-01-25T03:22:31;2.20;99.90
9730;DHT22;4904;49.152;11.004;2023-01-25T03:24:58;2.20;99.90
9730;DHT22;4904;49.152;11.004;2023-01-25T03:27:24;2.20;99.90
9730;DHT22;4904;49.152;11.004;2023-01-25T03:29:51;2.20;99.90
9730;DHT22;4904;49.152;11.004;2023-01-25T03:32:18;2.30;99.90
9730;DHT22;4904;49.152;11.004;2023-01-25T03:34:46;2.40;99.90
9730;DHT22;4904;49.152;11.004;2023-01-25T03:37:13;2.30;99.90
9730;DHT22;4904;49.152;11.004;2023-01-25T03:39:40;2.30;99.90
9730;DHT22;4904;49.152;11.004;2023-01-25T03:42:07;2.40;99.90
9730;DHT22;4904;49.152;11.004;2023-01-25T03:44:34;2.40;99.90
9730;DHT22;4904;49.152;11.004;2023-01-25T03:47:01;2.30;99.90
9730;DHT22;4904;49.152;11.004;2023-01-25T03:49:28;2.40;99.90
9730;DHT22;4904;49.152;11.004;2023-01-25T03:51:56;2.40;99.90
9730;DHT22;4904;49.152;11.004;2023-01-25T03:54:23;2.40;99.90
9730;DHT22;4904;49.152;11.004;2023-01-25T03:56:50;2.40;99.90
9730;DHT22;4904;49.152;11.004;2023-01-25T03:59:17;2.30;99.90
9730;DHT22;4904;49.152;11.004;2023-01-25T04:01:44;2.20;99.90
9730;DHT22;4904;49.152;11.004;2023-01-25T04:04:10;2.30;99.90
9730;DHT22;4904;49.152;11.004;2023-01-25T04:06:37;2.20;99.90
9730;DHT22;4904;49.152;11.004;2023-01-25T04:09:06;2.20;99.90
9730;DHT22;4904;49.152;11.004;2023-01-25T04:11:33;2.20;99.90
9730;DHT22;4904;49.152;11.004;2023-01-25T04:14:00;2.10;99.90
9730;DHT22;4904;49.152;11.004;2023-01-25T04:16:27;2.10;99.90
9730;DHT22;4904;49.152;11.004;2023-01-25T04:18:55;2.10;99.90
9730;DHT22;4904;49.152;11.004;2023-01-25T04:21:22;2.20;99.90
9730;DHT22;4904;49.152;11.004;2023-01-25T04:23:49;2.20;99.90
9730;DHT22;4904;49.152;11.004;2023-01-25T04:26:17;2.10;99.90
9730;DHT22;4904;49.152;11.004;2023-01-25T04:28:44;2.00;99.90
9730;DHT22;4904;49.152;11.004;2023-01-25T04:31:11;2.10;99.90
9730;DHT22;4904;49.152;11.004;2023-01-25T04:33:38;2.00;99.90
9730;DHT22;4904;49.152;11.004;2023-01-25T04:36:05;2.00;99.90
9730;DHT22;4904;49.152;11.004;2023-01-25T04:38:32;2.00;99.90
9730;DHT22;4904;49.152;11.004;2023-01-25T04:40:59;2.00;99.90
9730;DHT22;4904;49.152;11.004;2023-01-25T04:43:27;2.00;99.90
9730;DHT22;4904;49.152;11.004;2023-01-25T04:45:54;2.00;99.90
9730;DHT22;4904;49.152;11.004;2023-01-25T04:48:20;2.00;99.90
9730;DHT22;4904;49.152;11.004;2023-01-25T04:50:47;2.10;99.90
9730;DHT22;4904;49.152;11.004;2023-01-25T04:53:14;2.10;99.90
9730;DHT22;4904;49.152;11.004;2023-01-25T04:55:44;2.10;99.90
9730;DHT22;4904;49.152;11.004;2023-01-25T04:58:12;2.10;99.90
9730;DHT22;4904;49.152;11.004;2023-01-25T05:00:40;1.90;99.90
9730;DHT22;4904;49.152;11.004;2023-01-25T05:03:07;1.90;99.90
9730;DHT22;4904;49.152;11.004;2023-01-25T05:05:34;1.90;99.90
9730;DHT22;4904;49.152;11.004;2023-01-25T05:08:01;1.90;99.90
9730;DHT22;4904;49.152;11.004;2023-01-25T05:10:27;1.90;99.90
9730;DHT22;4904;49.152;11.004;2023-01-25T05:12:55;2.10;99.90
9730;DHT22;4904;49.152;11.004;2023-01-25T05:15:27;2.00;99.90
9730;DHT22;4904;49.152;11.004;2023-01-25T05:17:55;2.10;99.90
9730;DHT22;4904;49.152;11.004;2023-01-25T05:20:22;2.10;99.90
9730;DHT22;4904;49.152;11.004;2023-01-25T05:22:49;2.10;99.90
9730;DHT22;4904;49.152;11.004;2023-01-25T05:25:16;2.00;99.90
9730;DHT22;4904;49.152;11.004;2023-01-25T05:28:01;2.10;99.90
9730;DHT22;4904;49.152;11.004;2023-01-25T05:30:29;2.10;99.90
9730;DHT22;4904;49.152;11.004;2023-01-25T05:32:57;2.10;99.90
9730;DHT22;4904;49.152;11.004;2023-01-25T05:35:24;2.10;99.90
9730;DHT22;4904;49.152;11.004;2023-01-25T05:37:55;2.20;99.90
9730;DHT22;4904;49.152;11.004;2023-01-25T05:40:22;2.30;99.90
9730;DHT22;4904;49.152;11.004;2023-01-25T05:42:53;2.20;99.90
9730;DHT22;4904;49.152;11.004;2023-01-25T05:45:20;2.20;99.90
9730;DHT22;4904;49.152;11.004;2023-01-25T05:47:51;2.20;99.90
9730;DHT22;4904;49.152;11.004;2023-01-25T05:50:19;2.20;99.90
9730;DHT22;4904;49.152;11.004;2023-01-25T05:52:46;2.30;99.90
9730;DHT22;4904;49.152;11.004;2023-01-25T05:55:13;2.30;99.90
9730;DHT22;4904;49.152;11.004;2023-01-25T05:57:40;2.30;99.90
9730;DHT22;4904;49.152;11.004;2023-01-25T06:00:08;2.40;99.90
9730;DHT22;4904;49.152;11.004;2023-01-25T06:02:35;2.40;99.90
9730;DHT22;4904;49.152;11.004;2023-01-25T06:05:02;2.40;99.90
9730;DHT22;4904;49.152;11.004;2023-01-25T06:07:34;2.40;99.90
9730;DHT22;4904;49.152;11.004;2023-01-25T06:10:02;2.40;99.90
9730;DHT22;4904;49.152;11.004;2023-01-25T06:12:29;2.40;99.90
9730;DHT22;4904;49.152;11.004;2023-01-25T06:14:56;2.40;99.90
9730;DHT22;4904;49.152;11.004;2023-01-25T06:17:23;2.40;99.90
9730;DHT22;4904;49.152;11.004;2023-01-25T06:19:50;2.30;99.90
9730;DHT22;4904;49.152;11.004;2023-01-25T06:22:17;2.40;99.90
9730;DHT22;4904;49.152;11.004;2023-01-25T06:24:45;2.40;99.90
9730;DHT22;4904;49.152;11.004;2023-01-25T06:27:12;2.40;99.90
9730;DHT22;4904;49.152;11.004;2023-01-25T06:29:38;2.30;99.90
9730;DHT22;4904;49.152;11.004;2023-01-25T06:32:05;2.30;99.90
9730;DHT22;4904;49.152;11.004;2023-01-25T06:34:32;2.30;99.90
9730;DHT22;4904;49.152;11.004;2023-01-25T06:36:59;2.30;99.90
9730;DHT22;4904;49.152;11.004;2023-01-25T06:39:26;2.30;99.90
9730;DHT22;4904;49.152;11.004;2023-01-25T06:41:55;2.30;99.90
9730;DHT22;4904;49.152;11.004;2023-01-25T06:44:22;2.30;99.90
9730;DHT22;4904;49.152;11.004;2023-01-25T06:46:49;2.30;99.90
9730;DHT22;4904;49.152;11.004;2023-01-25T06:49:16;2.20;99.90
9730;DHT22;4904;49.152;11.004;2023-01-25T06:51:43;2.20;99.90
9730;DHT22;4904;49.152;11.004;2023-01-25T06:54:10;2.20;99.90
9730;DHT22;4904;49.152;11.004;2023-01-25T06:56:40;2.20;99.90
9730;DHT22;4904;49.152;11.004;2023-01-25T06:59:08;2.20;99.90
9730;DHT22;4904;49.152;11.004;2023-01-25T07:01:34;2.30;99.90
9730;DHT22;4904;49.152;11.004;2023-01-25T07:04:02;2.30;99.90
9730;DHT22;4904;49.152;11.004;2023-01-25T07:06:31;2.30;99.90
9730;DHT22;4904;49.152;11.004;2023-01-25T07:09:02;2.20;99.90
9730;DHT22;4904;49.152;11.004;2023-01-25T07:11:29;2.10;99.90
9730;DHT22;4904;49.152;11.004;2023-01-25T07:13:55;2.20;99.90
9730;DHT22;4904;49.152;11.004;2023-01-25T07:16:24;2.10;99.90
9730;DHT22;4904;49.152;11.004;2023-01-25T07:18:50;2.20;99.90
9730;DHT22;4904;49.152;11.004;2023-01-25T07:21:20;2.20;99.90
9730;DHT22;4904;49.152;11.004;2023-01-25T07:23:47;2.20;99.90
9730;DHT22;4904;49.152;11.004;2023-01-25T07:26:16;2.10;99.90
9730;DHT22;4904;49.152;11.004;2023-01-25T07:28:43;2.10;99.90
9730;DHT22;4904;49.152;11.004;2023-01-25T07:31:10;2.20;99.90
9730;DHT22;4904;49.152;11.004;2023-01-25T07:33:38;2.20;99.90
9730;DHT22;4904;49.152;11.004;2023-01-25T07:36:07;2.10;99.90
9730;DHT22;4904;49.152;11.004;2023-01-25T07:38:35;2.10;99.90
9730;DHT22;4904;49.152;11.004;2023-01-25T07:41:02;2.10;99.90
9730;DHT22;4904;49.152;11.004;2023-01-25T07:43:29;2.10;99.90
9730;DHT22;4904;49.152;11.004;2023-01-25T07:45:59;2.20;99.90
9730;DHT22;4904;49.152;11.004;2023-01-25T07:48:26;2.10;99.90
9730;DHT22;4904;49.152;11.004;2023-01-25T07:50:58;2.10;99.90
9730;DHT22;4904;49.152;11.004;2023-01-25T07:53:37;2.10;99.90
9730;DHT22;4904;49.152;11.004;2023-01-25T07:56:05;2.20;99.90
9730;DHT22;4904;49.152;11.004;2023-01-25T07:58:32;2.20;99.90
9730;DHT22;4904;49.152;11.004;2023-01-25T08:01:05;2.20;99.90
9730;DHT22;4904;49.152;11.004;2023-01-25T08:03:32;2.20;99.90
9730;DHT22;4904;49.152;11.004;2023-01-25T08:06:00;2.30;99.90
9730;DHT22;4904;49.152;11.004;2023-01-25T08:08:30;2.40;99.90
9730;DHT22;4904;49.152;11.004;2023-01-25T08:10:59;2.40;99.90
9730;DHT22;4904;49.152;11.004;2023-01-25T08:13:26;2.30;99.90
9730;DHT22;4904;49.152;11.004;2023-01-25T08:15:53;2.30;99.90
9730;DHT22;4904;49.152;11.004;2023-01-25T08:18:20;2.30;99.90
9730;DHT22;4904;49.152;11.004;2023-01-25T08:20:47;2.40;99.90
9730;DHT22;4904;49.152;11.004;2023-01-25T08:23:16;2.30;99.90
9730;DHT22;4904;49.152;11.004;2023-01-25T08:25:45;2.40;99.90
9730;DHT22;4904;49.152;11.004;2023-01-25T08:28:12;2.40;99.90
9730;DHT22;4904;49.152;11.004;2023-01-25T08:30:38;2.40;99.90
9730;DHT22;4904;49.152;11.004;2023-01-25T08:33:05;2.30;99.90
9730;DHT22;4904;49.152;11.004;2023-01-25T08:35:32;2.40;99.90
9730;DHT22;4904;49.152;11.004;2023-01-25T08:38:00;2.40;99.90
9730;DHT22;4904;49.152;11.004;2023-01-25T08:40:28;2.40;99.90
9730;DHT22;4904;49.152;11.004;2023-01-25T08:42:55;2.30;99.90
9730;DHT22;4904;49.152;11.004;2023-01-25T08:45:22;2.30;99.90
9730;DHT22;4904;49.152;11.004;2023-01-25T08:47:49;2.40;99.90
9730;DHT22;4904;49.152;11.004;2023-01-25T08:50:16;2.30;99.90
9730;DHT22;4904;49.152;11.004;2023-01-25T08:52:43;2.30;99.90
9730;DHT22;4904;49.152;11.004;2023-01-25T08:55:10;2.30;99.90
9730;DHT22;4904;49.152;11.004;2023-01-25T08:57:38;2.30;99.90
9730;DHT22;4904;49.152;11.004;2023-01-25T09:00:06;2.40;99.90
9730;DHT22;4904;49.152;11.004;2023-01-25T09:02:33;2.40;99.90
9730;DHT22;4904;49.152;11.004;2023-01-25T09:05:00;2.50;99.90
9730;DHT22;4904;49.152;11.004;2023-01-25T09:07:27;2.40;99.90
9730;DHT22;4904;49.152;11.004;2023-01-25T09:09:57;2.40;99.90
9730;DHT22;4904;49.152;11.004;2023-01-25T09:12:24;2.50;99.90
9730;DHT22;4904;49.152;11.004;2023-01-25T09:14:53;2.50;99.90
9730;DHT22;4904;49.152;11.004;2023-01-25T09:17:19;2.50;99.90
9730;DHT22;4904;49.152;11.004;2023-01-25T09:19:46;2.50;99.90
9730;DHT22;4904;49.152;11.004;2023-01-25T09:22:13;2.50;99.90
9730;DHT22;4904;49.152;11.004;2023-01-25T09:24:40;2.40;99.90
9730;DHT22;4904;49.152;11.004;2023-01-25T09:27:07;2.40;99.90
9730;DHT22;4904;49.152;11.004;2023-01-25T09:29:34;2.50;99.90
9730;DHT22;4904;49.152;11.004;2023-01-25T09:32:02;2.40;99.90
9730;DHT22;4904;49.152;11.004;2023-01-25T09:34:29;2.50;99.90
9730;DHT22;4904;49.152;11.004;2023-01-25T09:36:56;2.50;99.90
9730;DHT22;4904;49.152;11.004;2023-01-25T09:39:23;2.40;99.90
9730;DHT22;4904;49.152;11.004;2023-01-25T09:42:13;2.50;99.90
9730;DHT22;4904;49.152;11.004;2023-01-25T09:44:57;2.50;99.90
9730;DHT22;4904;49.152;11.004;2023-01-25T09:47:29;2.20;99.90
9730;DHT22;4904;49.152;11.004;2023-01-25T09:55:50;2.00;99.90
9730;DHT22;4904;49.152;11.004;2023-01-25T09:58:21;2.10;99.90
9730;DHT22;4904;49.152;11.004;2023-01-25T10:00:53;2.40;99.90
9730;DHT22;4904;49.152;11.004;2023-01-25T10:03:25;2.30;99.90
9730;DHT22;4904;49.152;11.004;2023-01-25T10:05:55;2.20;99.90
9730;DHT22;4904;49.152;11.004;2023-01-25T10:08:29;2.30;99.90
9730;DHT22;4904;49.152;11.004;2023-01-25T10:11:01;2.40;99.90
9730;DHT22;4904;49.152;11.004;2023-01-25T10:13:29;2.50;99.90
9730;DHT22;4904;49.152;11.004;2023-01-25T10:16:02;2.60;99.90
9730;DHT22;4904;49.152;11.004;2023-01-25T10:18:34;2.60;99.90
9730;DHT22;4904;49.152;11.004;2023-01-25T10:21:06;2.60;99.90
9730;DHT22;4904;49.152;11.004;2023-01-25T10:26:49;2.50;99.90
9730;DHT22;4904;49.152;11.004;2023-01-25T10:29:19;2.50;99.90
9730;DHT22;4904;49.152;11.004;2023-01-25T10:31:47;2.50;99.90
9730;DHT22;4904;49.152;11.004;2023-01-25T10:34:20;2.50;99.90
9730;DHT22;4904;49.152;11.004;2023-01-25T10:36:51;2.40;99.90
9730;DHT22;4904;49.152;11.004;2023-01-25T10:39:19;2.50;99.90
9730;DHT22;4904;49.152;11.004;2023-01-25T10:41:49;2.40;99.90
9730;DHT22;4904;49.152;11.004;2023-01-25T10:44:16;2.40;99.90
9730;DHT22;4904;49.152;11.004;2023-01-25T10:46:56;2.30;99.90
9730;DHT22;4904;49.152;11.004;2023-01-25T10:49:34;2.30;99.90
9730;DHT22;4904;49.152;11.004;2023-01-25T10:52:13;2.40;99.90
9730;DHT22;4904;49.152;11.004;2023-01-25T10:54:41;2.50;99.90
9730;DHT22;4904;49.152;11.004;2023-01-25T10:57:10;2.50;99.90
9730;DHT22;4904;49.152;11.004;2023-01-25T10:59:43;2.60;99.90
9730;DHT22;4904;49.152;11.004;2023-01-25T11:02:37;2.60;99.90
9730;DHT22;4904;49.152;11.004;2023-01-25T11:05:29;2.60;99.90
9730;DHT22;4904;49.152;11.004;2023-01-25T11:07:56;2.50;99.90
9730;DHT22;4904;49.152;11.004;2023-01-25T11:10:31;2.50;99.90
9730;DHT22;4904;49.152;11.004;2023-01-25T11:13:20;2.60;99.90
9730;DHT22;4904;49.152;11.004;2023-01-25T11:15:49;2.60;99.90
9730;DHT22;4904;49.152;11.004;2023-01-25T11:18:20;2.60;99.90
9730;DHT22;4904;49.152;11.004;2023-01-25T11:21:06;2.50;99.90
9730;DHT22;4904;49.152;11.004;2023-01-25T11:23:33;2.50;99.90
9730;DHT22;4904;49.152;11.004;2023-01-25T11:26:11;2.50;99.90
9730;DHT22;4904;49.152;11.004;2023-01-25T11:28:39;2.50;99.90
9730;DHT22;4904;49.152;11.004;2023-01-25T11:31:10;2.50;99.90
9730;DHT22;4904;49.152;11.004;2023-01-25T11:33:38;2.60;99.90
9730;DHT22;4904;49.152;11.004;2023-01-25T11:36:23;2.60;99.90
9730;DHT22;4904;49.152;11.004;2023-01-25T11:39:09;2.60;99.90
9730;DHT22;4904;49.152;11.004;2023-01-25T11:41:49;2.70;99.90
9730;DHT22;4904;49.152;11.004;2023-01-25T11:47:37;2.50;99.90
9730;DHT22;4904;49.152;11.004;2023-01-25T11:50:12;2.60;99.90
9730;DHT22;4904;49.152;11.004;2023-01-25T11:55:44;2.80;99.90
9730;DHT22;4904;49.152;11.004;2023-01-25T11:58:23;2.60;99.90
9730;DHT22;4904;49.152;11.004;2023-01-25T12:01:07;2.40;99.90
9730;DHT22;4904;49.152;11.004;2023-01-25T12:06:32;2.60;99.90
9730;DHT22;4904;49.152;11.004;2023-01-25T12:09:18;2.70;99.90
9730;DHT22;4904;49.152;11.004;2023-01-25T12:12:00;2.70;99.90
9730;DHT22;4904;49.152;11.004;2023-01-25T12:14:38;2.60;99.90
9730;DHT22;4904;49.152;11.004;2023-01-25T12:17:21;2.60;99.90
9730;DHT22;4904;49.152;11.004;2023-01-25T12:20:12;2.70;99.90
9730;DHT22;4904;49.152;11.004;2023-01-25T12:22:56;2.70;99.90
9730;DHT22;4904;49.152;11.004;2023-01-25T12:25:31;2.70;99.90
9730;DHT22;4904;49.152;11.004;2023-01-25T12:28:09;2.60;99.90
9730;DHT22;4904;49.152;11.004;2023-01-25T12:30:44;2.70;99.90
9730;DHT22;4904;49.152;11.004;2023-01-25T12:33:18;2.70;99.90
9730;DHT22;4904;49.152;11.004;2023-01-25T12:35:50;2.50;99.90
9730;DHT22;4904;49.152;11.004;2023-01-25T12:38:23;2.50;99.90
9730;DHT22;4904;49.152;11.004;2023-01-25T12:40:58;2.50;99.90
9730;DHT22;4904;49.152;11.004;2023-01-25T12:43:30;2.60;99.90
9730;DHT22;4904;49.152;11.004;2023-01-25T12:46:03;2.70;99.90
9730;DHT22;4904;49.152;11.004;2023-01-25T12:48:35;2.80;99.90
9730;DHT22;4904;49.152;11.004;2023-01-25T12:51:05;2.80;99.90
9730;DHT22;4904;49.152;11.004;2023-01-25T12:53:36;2.80;99.90
9730;DHT22;4904;49.152;11.004;2023-01-25T12:56:08;2.80;99.90
9730;DHT22;4904;49.152;11.004;2023-01-25T12:58:41;2.80;99.90
9730;DHT22;4904;49.152;11.004;2023-01-25T13:01:17;2.80;99.90
9730;DHT22;4904;49.152;11.004;2023-01-25T13:03:58;2.80;99.90
9730;DHT22;4904;49.152;11.004;2023-01-25T13:06:35;2.80;99.90
9730;DHT22;4904;49.152;11.004;2023-01-25T13:09:09;2.70;99.90
9730;DHT22;4904;49.152;11.004;2023-01-25T13:11:41;2.70;99.90
9730;DHT22;4904;49.152;11.004;2023-01-25T13:14:34;2.80;99.90
9730;DHT22;4904;49.152;11.004;2023-01-25T13:17:23;2.80;99.90
9730;DHT22;4904;49.152;11.004;2023-01-25T13:19:54;2.80;99.90
9730;DHT22;4904;49.152;11.004;2023-01-25T13:22:52;2.90;99.90
9730;DHT22;4904;49.152;11.004;2023-01-25T13:25:20;2.70;99.90
9730;DHT22;4904;49.152;11.004;2023-01-25T13:27:49;2.70;99.90
9730;DHT22;4904;49.152;11.004;2023-01-25T13:30:29;2.60;99.90
9730;DHT22;4904;49.152;11.004;2023-01-25T13:32:59;2.70;99.90
9730;DHT22;4904;49.152;11.004;2023-01-25T13:35:32;2.70;99.90
9730;DHT22;4904;49.152;11.004;2023-01-25T13:38:02;2.80;99.90
9730;DHT22;4904;49.152;11.004;2023-01-25T13:40:32;2.80;99.90
9730;DHT22;4904;49.152;11.004;2023-01-25T13:43:02;2.80;99.90
9730;DHT22;4904;49.152;11.004;2023-01-25T13:45:32;2.70;99.90
9730;DHT22;4904;49.152;11.004;2023-01-25T13:48:03;2.80;99.90
9730;DHT22;4904;49.152;11.004;2023-01-25T13:50:33;2.70;99.90
9730;DHT22;4904;49.152;11.004;2023-01-25T13:53:02;2.60;99.90
9730;DHT22;4904;49.152;11.004;2023-01-25T13:55:37;2.60;99.90
9730;DHT22;4904;49.152;11.004;2023-01-25T13:58:10;2.60;99.90
9730;DHT22;4904;49.152;11.004;2023-01-25T14:00:47;2.60;99.90
9730;DHT22;4904;49.152;11.004;2023-01-25T14:03:14;2.60;99.90
9730;DHT22;4904;49.152;11.004;2023-01-25T14:05:48;2.50;99.90
9730;DHT22;4904;49.152;11.004;2023-01-25T14:08:17;2.70;99.90
9730;DHT22;4904;49.152;11.004;2023-01-25T14:10:45;2.60;99.90
9730;DHT22;4904;49.152;11.004;2023-01-25T14:13:15;2.50;99.90
9730;DHT22;4904;49.152;11.004;2023-01-25T14:15:51;2.50;99.90
9730;DHT22;4904;49.152;11.004;2023-01-25T14:18:20;2.60;99.90
9730;DHT22;4904;49.152;11.004;2023-01-25T14:20:48;2.60;99.90
9730;DHT22;4904;49.152;11.004;2023-01-25T14:23:23;2.50;99.90
9730;DHT22;4904;49.152;11.004;2023-01-25T14:25:51;2.50;99.90
9730;DHT22;4904;49.152;11.004;2023-01-25T14:28:20;2.20;99.90
9730;DHT22;4904;49.152;11.004;2023-01-25T14:30:51;2.30;99.90
9730;DHT22;4904;49.152;11.004;2023-01-25T14:33:22;2.40;99.90
9730;DHT22;4904;49.152;11.004;2023-01-25T14:35:50;2.40;99.90
9730;DHT22;4904;49.152;11.004;2023-01-25T14:38:29;2.50;99.90
9730;DHT22;4904;49.152;11.004;2023-01-25T14:40:59;2.50;99.90
9730;DHT22;4904;49.152;11.004;2023-01-25T14:43:29;2.40;99.90
9730;DHT22;4904;49.152;11.004;2023-01-25T14:45:56;2.30;99.90
9730;DHT22;4904;49.152;11.004;2023-01-25T14:48:35;2.30;99.90
9730;DHT22;4904;49.152;11.004;2023-01-25T14:51:04;2.30;99.90
9730;DHT22;4904;49.152;11.004;2023-01-25T14:53:38;2.20;99.90
9730;DHT22;4904;49.152;11.004;2023-01-25T14:56:16;2.30;99.90
9730;DHT22;4904;49.152;11.004;2023-01-25T14:58:46;2.30;99.90
9730;DHT22;4904;49.152;11.004;2023-01-25T15:01:27;2.30;99.90
9730;DHT22;4904;49.152;11.004;2023-01-25T15:03:55;2.40;99.90
9730;DHT22;4904;49.152;11.004;2023-01-25T15:06:22;2.40;99.90
9730;DHT22;4904;49.152;11.004;2023-01-25T15:08:49;2.30;99.90
9730;DHT22;4904;49.152;11.004;2023-01-25T15:11:30;2.30;99.90
9730;DHT22;4904;49.152;11.004;2023-01-25T15:14:14;2.40;99.90
9730;DHT22;4904;49.152;11.004;2023-01-25T15:16:42;2.30;99.90
9730;DHT22;4904;49.152;11.004;2023-01-25T15:19:24;2.30;99.90
9730;DHT22;4904;49.152;11.004;2023-01-25T15:21:53;2.30;99.90
9730;DHT22;4904;49.152;11.004;2023-01-25T15:24:21;2.30;99.90
9730;DHT22;4904;49.152;11.004;2023-01-25T15:26:49;2.20;99.90
9730;DHT22;4904;49.152;11.004;2023-01-25T15:29:19;2.20;99.90
9730;DHT22;4904;49.152;11.004;2023-01-25T15:31:48;2.20;99.90
9730;DHT22;4904;49.152;11.004;2023-01-25T15:34:17;2.20;99.90
9730;DHT22;4904;49.152;11.004;2023-01-25T15:36:44;2.20;99.90
9730;DHT22;4904;49.152;11.004;2023-01-25T15:39:13;2.10;99.90
9730;DHT22;4904;49.152;11.004;2023-01-25T15:41:40;2.20;99.90
9730;DHT22;4904;49.152;11.004;2023-01-25T15:44:08;2.20;99.90
9730;DHT22;4904;49.152;11.004;2023-01-25T15:46:38;2.20;99.90
9730;DHT22;4904;49.152;11.004;2023-01-25T15:49:06;2.20;99.90
9730;DHT22;4904;49.152;11.004;2023-01-25T15:51:34;2.10;99.90
9730;DHT22;4904;49.152;11.004;2023-01-25T15:54:01;2.20;99.90
9730;DHT22;4904;49.152;11.004;2023-01-25T15:56:30;2.30;99.90
9730;DHT22;4904;49.152;11.004;2023-01-25T15:58:59;2.20;99.90
9730;DHT22;4904;49.152;11.004;2023-01-25T16:01:28;2.30;99.90
9730;DHT22;4904;49.152;11.004;2023-01-25T16:03:58;2.20;99.90
9730;DHT22;4904;49.152;11.004;2023-01-25T16:06:32;2.20;99.90
9730;DHT22;4904;49.152;11.004;2023-01-25T16:09:03;2.00;99.90
9730;DHT22;4904;49.152;11.004;2023-01-25T16:11:36;1.80;99.90
9730;DHT22;4904;49.152;11.004;2023-01-25T16:14:03;1.80;99.90
9730;DHT22;4904;49.152;11.004;2023-01-25T16:16:38;1.60;99.90
9730;DHT22;4904;49.152;11.004;2023-01-25T16:19:09;1.50;99.90
9730;DHT22;4904;49.152;11.004;2023-01-25T16:21:38;1.40;99.90
9730;DHT22;4904;49.152;11.004;2023-01-25T16:24:06;1.50;99.90
9730;DHT22;4904;49.152;11.004;2023-01-25T16:26:36;1.40;99.90
9730;DHT22;4904;49.152;11.004;2023-01-25T16:29:03;1.40;99.90
9730;DHT22;4904;49.152;11.004;2023-01-25T16:31:30;1.50;99.90
9730;DHT22;4904;49.152;11.004;2023-01-25T16:33:57;1.50;99.90
9730;DHT22;4904;49.152;11.004;2023-01-25T16:36:26;1.60;99.90
9730;DHT22;4904;49.152;11.004;2023-01-25T16:38:52;1.60;99.90